createdAt,value
2018-02-07T00:01:28.690Z,15.80
2018-02-07T00:03:56.135Z,18.40
2018-02-07T00:06:24.338Z,17.87
2018-02-07T00:08:51.795Z,16.90
2018-02-07T00:11:19.996Z,18.40
2018-02-07T00:13:47.462Z,16.07
2018-02-07T00:16:14.895Z,16.33
2018-02-07T00:18:42.342Z,17.97
2018-02-07T00:21:09.794Z,16.50
2018-02-07T00:23:37.239Z,15.93
2018-02-07T00:26:04.686Z,17.57
2018-02-07T00:28:32.891Z,18.93
2018-02-07T00:31:00.331Z,16.43
2018-02-07T00:33:28.542Z,17.93
2018-02-07T00:35:55.992Z,19.47
2018-02-07T00:38:24.195Z,17.30
2018-02-07T00:40:51.635Z,17.93
2018-02-07T00:43:19.849Z,18.03
2018-02-07T00:45:47.307Z,17.20
2018-02-07T00:48:15.515Z,15.70
2018-02-07T00:50:42.967Z,16.37
2018-02-07T00:53:10.407Z,16.20
2018-02-07T00:55:37.854Z,17.10
2018-02-07T00:58:05.299Z,17.50
2018-02-07T01:00:32.743Z,16.83
2018-02-07T01:03:00.182Z,18.40
2018-02-07T01:05:27.623Z,16.67
2018-02-07T01:07:55.067Z,18.27
2018-02-07T01:10:22.511Z,17.03
2018-02-07T01:12:50.710Z,19.87
2018-02-07T01:15:18.166Z,18.23
2018-02-07T01:17:46.363Z,18.03
2018-02-07T01:20:13.807Z,17.90
2018-02-07T01:22:41.244Z,19.67
2018-02-07T01:25:09.458Z,19.00
2018-02-07T01:27:36.899Z,18.20
2018-02-07T01:30:04.343Z,17.10
2018-02-07T01:32:31.782Z,17.40
2018-02-07T01:34:59.996Z,15.07
2018-02-07T01:37:27.429Z,18.57
2018-02-07T01:39:54.875Z,18.43
2018-02-07T01:42:22.315Z,18.00
2018-02-07T01:44:50.531Z,17.90
2018-02-07T01:47:17.967Z,18.70
2018-02-07T01:49:45.411Z,18.37
2018-02-07T01:52:12.859Z,17.20
2018-02-07T01:54:41.071Z,17.43
2018-02-07T01:57:08.511Z,19.40
2018-02-07T01:59:35.958Z,15.83
2018-02-07T02:02:03.398Z,17.07
2018-02-07T02:04:31.608Z,18.80
2018-02-07T02:06:59.055Z,18.77
2018-02-07T02:09:26.500Z,19.40
2018-02-07T02:11:53.946Z,20.30
2018-02-07T02:14:21.386Z,17.57
2018-02-07T02:16:48.828Z,19.43
2018-02-07T02:19:16.263Z,19.70
2018-02-07T02:21:43.711Z,20.40
2018-02-07T02:24:11.151Z,19.17
2018-02-07T02:26:38.599Z,19.40
2018-02-07T02:29:06.039Z,20.97
2018-02-07T02:31:33.483Z,18.60
2018-02-07T02:34:01.688Z,18.50
2018-02-07T02:36:41.035Z,19.00
2018-02-07T02:39:09.249Z,17.80
2018-02-07T02:41:37.446Z,19.80
2018-02-07T02:44:05.661Z,18.60
2018-02-07T02:46:33.103Z,19.10
2018-02-07T02:49:00.546Z,17.33
2018-02-07T02:51:27.992Z,19.37
2018-02-07T02:53:55.432Z,21.07
2018-02-07T02:56:22.880Z,19.43
2018-02-07T02:58:50.324Z,19.23
2018-02-07T03:01:18.535Z,19.10
2018-02-07T03:03:45.979Z,17.87
2018-02-07T03:06:13.422Z,17.63
2018-02-07T03:08:40.868Z,22.40
2018-02-07T03:11:09.075Z,19.87
2018-02-07T03:13:36.523Z,17.97
2018-02-07T03:16:03.971Z,18.10
2018-02-07T03:18:31.417Z,19.43
2018-02-07T03:20:58.863Z,19.33
2018-02-07T03:23:26.303Z,19.33
2018-02-07T03:25:53.751Z,18.07
2018-02-07T03:28:21.187Z,20.00
2018-02-07T03:30:48.632Z,18.67
2018-02-07T03:33:16.079Z,16.87
2018-02-07T03:35:44.291Z,18.37
2018-02-07T03:38:12.496Z,19.20
2018-02-07T03:40:39.948Z,18.90
2018-02-07T03:43:07.375Z,18.17
2018-02-07T03:45:34.819Z,18.83
2018-02-07T03:48:03.044Z,17.60
2018-02-07T03:50:30.488Z,17.63
2018-02-07T03:52:57.927Z,18.67
2018-02-07T03:55:25.379Z,20.17
2018-02-07T03:57:52.830Z,20.90
2018-02-07T04:00:20.266Z,20.03
2018-02-07T04:02:47.703Z,19.77
2018-02-07T04:05:15.920Z,23.17
2018-02-07T04:07:43.355Z,21.40
2018-02-07T04:10:10.799Z,23.00
2018-02-07T04:12:38.269Z,23.67
2018-02-07T04:15:05.712Z,22.20
2018-02-07T04:17:33.928Z,22.50
2018-02-07T04:20:02.127Z,23.97
2018-02-07T04:22:30.335Z,21.67
2018-02-07T04:24:57.774Z,24.67
2018-02-07T04:27:25.240Z,23.27
2018-02-07T04:29:52.675Z,22.00
2018-02-07T04:32:20.127Z,23.53
2018-02-07T04:34:47.567Z,23.40
2018-02-07T04:37:15.017Z,21.10
2018-02-07T04:39:43.223Z,24.33
2018-02-07T04:42:10.671Z,24.47
2018-02-07T04:44:38.111Z,21.40
2018-02-07T04:47:05.555Z,23.20
2018-02-07T04:49:32.999Z,23.30
2018-02-07T04:52:00.448Z,23.67
2018-02-07T04:54:27.894Z,21.73
2018-02-07T04:56:56.107Z,22.97
2018-02-07T04:59:23.548Z,22.47
2018-02-07T05:01:50.991Z,22.93
2018-02-07T05:04:18.431Z,22.27
2018-02-07T05:06:46.643Z,22.47
2018-02-07T05:09:14.075Z,22.47
2018-02-07T05:11:41.522Z,21.80
2018-02-07T05:14:08.972Z,22.00
2018-02-07T05:16:37.179Z,21.07
2018-02-07T05:19:04.628Z,24.27
2018-02-07T05:21:32.075Z,21.97
2018-02-07T05:23:59.515Z,27.20
2018-02-07T05:26:26.963Z,24.10
2018-02-07T05:28:54.408Z,24.13
2018-02-07T05:31:21.862Z,22.80
2018-02-07T05:33:49.299Z,25.40
2018-02-07T05:36:16.738Z,24.20
2018-02-07T05:38:44.188Z,26.33
2018-02-07T05:41:12.403Z,27.73
2018-02-07T05:43:39.839Z,26.67
2018-02-07T05:46:07.287Z,25.00
2018-02-07T05:48:34.728Z,26.70
2018-02-07T05:51:03.685Z,25.17
2018-02-07T05:53:31.118Z,28.33
2018-02-07T05:55:59.327Z,28.57
2018-02-07T05:58:27.531Z,28.57
2018-02-07T06:00:55.738Z,30.60
2018-02-07T06:03:23.180Z,24.60
2018-02-07T06:05:50.618Z,30.73
2018-02-07T06:08:18.067Z,29.07
2018-02-07T06:10:46.270Z,31.13
2018-02-07T06:13:14.479Z,27.40
2018-02-07T06:15:41.925Z,29.10
2018-02-07T06:18:09.376Z,27.37
2018-02-07T06:20:36.811Z,28.13
2018-02-07T06:23:04.259Z,27.87
2018-02-07T06:25:31.691Z,25.97
2018-02-07T06:27:59.144Z,29.13
2018-02-07T06:30:27.363Z,27.47
2018-02-07T06:32:55.560Z,26.97
2018-02-07T06:35:22.999Z,29.00
2018-02-07T06:37:50.448Z,30.10
2018-02-07T06:40:17.888Z,26.00
2018-02-07T06:42:46.099Z,29.40
2018-02-07T06:45:13.535Z,29.20
2018-02-07T06:47:40.987Z,28.90
2018-02-07T06:50:08.439Z,28.53
2018-02-07T06:52:35.894Z,25.70
2018-02-07T06:55:04.091Z,26.30
2018-02-07T06:57:32.310Z,26.17
2018-02-07T06:59:59.752Z,27.77
2018-02-07T07:02:27.196Z,28.90
2018-02-07T07:04:54.635Z,30.67
2018-02-07T07:07:22.852Z,26.90
2018-02-07T07:09:50.295Z,27.33
2018-02-07T07:12:17.734Z,24.50
2018-02-07T07:14:45.181Z,25.90
2018-02-07T07:17:13.399Z,28.17
2018-02-07T07:19:40.848Z,27.10
2018-02-07T07:22:08.295Z,26.53
2018-02-07T07:24:35.740Z,29.60
2018-02-07T07:27:03.179Z,28.23
2018-02-07T07:29:30.624Z,27.60
2018-02-07T07:31:58.076Z,38.40
2018-02-07T07:34:26.283Z,29.37
2018-02-07T07:36:53.733Z,29.20
2018-02-07T07:39:21.168Z,26.10
2018-02-07T07:41:48.615Z,25.10
2018-02-07T07:44:16.824Z,28.07
2018-02-07T07:46:44.276Z,24.83
2018-02-07T07:49:11.721Z,29.77
2018-02-07T07:51:39.168Z,27.77
2018-02-07T07:54:06.616Z,27.00
2018-02-07T07:56:34.071Z,26.40
2018-02-07T07:59:01.512Z,25.30
2018-02-07T08:01:29.731Z,25.87
2018-02-07T08:03:57.172Z,24.20
2018-02-07T08:06:24.619Z,27.40
2018-02-07T08:08:52.071Z,27.20
2018-02-07T08:11:19.512Z,24.63
2018-02-07T08:13:46.955Z,28.00
2018-02-07T08:16:14.395Z,28.37
2018-02-07T08:18:41.896Z,25.10
2018-02-07T08:21:09.278Z,29.93
2018-02-07T08:23:36.728Z,26.97
2018-02-07T08:26:04.172Z,27.53
2018-02-07T08:28:31.623Z,28.50
2018-02-07T08:30:59.828Z,25.70
2018-02-07T08:33:28.050Z,28.07
2018-02-07T08:35:55.489Z,28.07
2018-02-07T08:38:22.941Z,30.63
2018-02-07T08:40:50.376Z,27.23
2018-02-07T08:43:17.815Z,27.73
2018-02-07T08:45:45.255Z,28.37
2018-02-07T08:48:12.704Z,26.67
2018-02-07T08:50:40.903Z,27.20
2018-02-07T08:53:09.115Z,28.90
2018-02-07T08:55:36.550Z,28.20
2018-02-07T08:58:03.991Z,30.43
2018-02-07T09:00:31.431Z,30.13
2018-02-07T09:02:59.644Z,31.80
2018-02-07T09:05:27.847Z,30.63
2018-02-07T09:07:56.070Z,27.47
2018-02-07T09:10:23.504Z,28.80
2018-02-07T09:12:50.951Z,29.07
2018-02-07T09:15:18.391Z,28.10
2018-02-07T09:17:45.835Z,29.37
2018-02-07T09:20:13.275Z,27.07
2018-02-07T09:22:40.731Z,27.23
2018-02-07T09:25:08.935Z,26.97
2018-02-07T09:27:36.383Z,29.83
2018-02-07T09:30:03.824Z,26.07
2018-02-07T09:32:31.271Z,27.00
2018-02-07T09:34:58.710Z,27.97
2018-02-07T09:37:26.159Z,28.60
2018-02-07T09:39:53.599Z,28.07
2018-02-07T09:42:21.811Z,27.90
2018-02-07T09:44:50.016Z,28.13
2018-02-07T09:47:17.455Z,27.50
2018-02-07T09:49:44.899Z,31.27
2018-02-07T09:52:12.335Z,29.33
2018-02-07T09:54:40.548Z,27.27
2018-02-07T09:57:08.751Z,31.10
2018-02-07T09:59:36.191Z,26.40
2018-02-07T10:02:03.632Z,26.70
2018-02-07T10:04:31.079Z,29.30
2018-02-07T10:06:59.287Z,28.07
2018-02-07T10:09:26.736Z,27.80
2018-02-07T10:11:54.175Z,26.80
2018-02-07T10:14:21.627Z,28.70
2018-02-07T10:16:49.836Z,25.93
2018-02-07T10:19:17.279Z,27.70
2018-02-07T10:21:44.710Z,28.73
2018-02-07T10:24:12.164Z,26.33
2018-02-07T10:26:40.368Z,25.77
2018-02-07T10:29:08.584Z,28.30
2018-02-07T10:31:36.020Z,25.93
2018-02-07T10:34:03.469Z,28.73
2018-02-07T10:36:30.908Z,27.10
2018-02-07T10:38:58.355Z,27.47
2018-02-07T10:41:25.796Z,27.57
2018-02-07T10:43:53.249Z,27.20
2018-02-07T10:46:21.455Z,27.57
2018-02-07T10:48:48.899Z,28.07
2018-02-07T10:51:16.335Z,28.57
2018-02-07T10:53:43.784Z,29.10
2018-02-07T10:56:11.991Z,27.57
2018-02-07T10:58:40.203Z,26.80
2018-02-07T11:01:07.643Z,27.73
2018-02-07T11:03:35.087Z,24.80
2018-02-07T11:06:02.534Z,27.53
2018-02-07T11:08:29.981Z,27.13
2018-02-07T11:10:57.419Z,25.87
2018-02-07T11:13:24.858Z,25.97
2018-02-07T11:15:53.063Z,26.17
2018-02-07T11:18:21.280Z,29.70
2018-02-07T11:20:48.714Z,24.43
2018-02-07T11:23:16.158Z,24.80
2018-02-07T11:25:43.599Z,26.77
2018-02-07T11:28:11.809Z,29.13
2018-02-07T11:30:40.017Z,26.73
2018-02-07T11:33:07.455Z,26.33
2018-02-07T11:35:34.886Z,26.77
2018-02-07T11:38:02.343Z,28.40
2018-02-07T11:40:30.551Z,27.10
2018-02-07T11:42:57.999Z,25.30
2018-02-07T11:45:25.431Z,26.93
2018-02-07T11:47:52.867Z,27.60
2018-02-07T11:50:20.320Z,27.27
2018-02-07T11:52:47.758Z,28.23
2018-02-07T11:55:15.200Z,26.53
2018-02-07T11:57:42.640Z,27.80
2018-02-07T12:00:10.089Z,30.07
2018-02-07T12:02:38.292Z,26.77
2018-02-07T12:05:06.504Z,30.83
2018-02-07T12:07:33.950Z,27.90
2018-02-07T12:10:01.394Z,30.10
2018-02-07T12:12:28.830Z,28.10
2018-02-07T12:14:56.276Z,27.37
2018-02-07T12:17:23.716Z,29.80
2018-02-07T12:19:51.157Z,26.33
2018-02-07T12:22:19.355Z,25.27
2018-02-07T12:24:47.571Z,26.30
2018-02-07T12:27:15.012Z,25.63
2018-02-07T12:29:42.455Z,26.07
2018-02-07T12:32:09.891Z,26.97
2018-02-07T12:34:37.332Z,25.50
2018-02-07T12:37:04.772Z,22.90
2018-02-07T12:39:32.220Z,27.27
2018-02-07T12:41:59.663Z,26.27
2018-02-07T12:44:27.111Z,27.50
2018-02-07T12:46:55.315Z,29.23
2018-02-07T12:49:22.759Z,25.80
2018-02-07T12:51:50.205Z,26.57
2018-02-07T12:54:17.642Z,27.80
2018-02-07T12:56:45.850Z,28.23
2018-02-07T12:59:13.294Z,26.73
2018-02-07T13:01:40.735Z,27.87
2018-02-07T13:04:08.187Z,26.97
2018-02-07T13:06:36.392Z,27.53
2018-02-07T13:09:03.851Z,27.80
2018-02-07T13:11:31.298Z,26.97
2018-02-07T13:13:58.743Z,28.47
2018-02-07T13:16:26.179Z,28.70
2018-02-07T13:18:53.624Z,27.50
2018-02-07T13:21:21.065Z,26.97
2018-02-07T13:23:48.519Z,28.20
2018-02-07T13:26:15.961Z,25.17
2018-02-07T13:28:43.406Z,26.47
2018-02-07T13:31:10.844Z,27.70
2018-02-07T13:33:38.295Z,27.17
2018-02-07T13:36:05.732Z,25.57
2018-02-07T13:38:33.176Z,27.80
2018-02-07T13:41:01.384Z,26.70
2018-02-07T13:43:28.830Z,30.27
2018-02-07T13:45:56.262Z,27.20
2018-02-07T13:48:23.707Z,26.37
2018-02-07T13:50:51.151Z,28.60
2018-02-07T13:53:18.592Z,25.83
2018-02-07T13:55:46.035Z,26.07
2018-02-07T13:58:13.474Z,27.33
2018-02-07T14:00:46.507Z,27.40
2018-02-07T14:03:13.942Z,25.10
2018-02-07T14:05:41.387Z,26.93
2018-02-07T14:08:08.823Z,27.97
2018-02-07T14:10:36.279Z,26.47
2018-02-07T14:13:04.483Z,22.30
2018-02-07T14:15:31.938Z,25.93
2018-02-07T14:17:59.375Z,28.23
2018-02-07T14:20:26.815Z,25.93
2018-02-07T14:22:55.019Z,26.83
2018-02-07T14:25:23.235Z,26.50
2018-02-07T14:27:50.671Z,26.10
2018-02-07T14:30:18.115Z,25.80
2018-02-07T14:32:45.550Z,28.13
2018-02-07T14:35:13.767Z,25.60
2018-02-07T14:37:41.207Z,24.83
2018-02-07T14:40:08.664Z,26.07
2018-02-07T14:42:36.100Z,26.37
2018-02-07T14:45:03.548Z,24.53
2018-02-07T14:47:30.987Z,27.07
2018-02-07T14:49:58.459Z,27.63
2018-02-07T14:52:25.895Z,24.13
2018-02-07T14:54:54.109Z,24.40
2018-02-07T14:57:22.318Z,27.90
2018-02-07T14:59:49.767Z,27.40
2018-02-07T15:02:17.207Z,26.43
2018-02-07T15:04:44.655Z,24.77
2018-02-07T15:07:12.863Z,25.90
2018-02-07T15:09:40.310Z,26.40
2018-02-07T15:12:07.798Z,26.37
2018-02-07T15:14:35.199Z,24.47
2018-02-07T15:17:02.648Z,24.63
2018-02-07T15:19:30.095Z,24.70
2018-02-07T15:21:57.528Z,27.37
2018-02-07T15:24:25.745Z,25.53
2018-02-07T15:26:53.205Z,25.13
2018-02-07T15:29:20.631Z,25.97
2018-02-07T15:31:48.074Z,25.47
2018-02-07T15:34:16.283Z,27.50
2018-02-07T15:36:43.724Z,27.83
2018-02-07T15:39:11.175Z,27.40
2018-02-07T15:41:38.611Z,28.00
2018-02-07T15:44:06.850Z,28.17
2018-02-07T15:46:34.278Z,27.43
2018-02-07T15:49:01.720Z,28.00
2018-02-07T15:51:29.168Z,26.77
2018-02-07T15:53:56.609Z,26.60
2018-02-07T15:56:24.060Z,27.37
2018-02-07T15:58:51.499Z,29.67
2018-02-07T16:01:19.762Z,26.83
2018-02-07T16:03:47.151Z,27.60
2018-02-07T16:06:14.602Z,26.37
2018-02-07T16:08:42.036Z,28.10
2018-02-07T16:11:10.251Z,29.00
2018-02-07T16:13:37.695Z,24.80
2018-02-07T16:16:05.138Z,26.27
2018-02-07T16:18:32.579Z,29.10
2018-02-07T16:21:00.798Z,28.30
2018-02-07T16:23:28.222Z,27.40
2018-02-07T16:25:55.671Z,30.23
2018-02-07T16:28:23.111Z,30.77
2018-02-07T16:30:51.327Z,34.43
2018-02-07T16:33:18.768Z,29.37
2018-02-07T16:35:46.211Z,28.83
2018-02-07T16:38:13.695Z,25.47
2018-02-07T16:40:41.127Z,27.27
2018-02-07T16:43:09.340Z,33.30
2018-02-07T16:45:37.551Z,28.60
2018-02-07T16:48:04.990Z,26.73
2018-02-07T16:50:32.435Z,24.77
2018-02-07T16:52:59.871Z,28.40
2018-02-07T16:55:28.120Z,29.27
2018-02-07T16:57:55.556Z,28.43
2018-02-07T17:00:23.766Z,29.70
2018-02-07T17:02:51.207Z,28.43
2018-02-07T17:05:18.661Z,28.80
2018-02-07T17:07:46.096Z,31.83
2018-02-07T17:10:14.311Z,27.40
2018-02-07T17:12:41.755Z,27.73
2018-02-07T17:15:09.199Z,33.87
2018-02-07T17:17:36.641Z,34.80
2018-02-07T17:20:04.859Z,34.70
2018-02-07T17:22:32.300Z,39.50
2018-02-07T17:24:59.747Z,31.87
2018-02-07T17:27:27.183Z,31.43
2018-02-07T17:29:54.631Z,34.40
2018-02-07T17:32:22.071Z,29.80
2018-02-07T17:34:49.537Z,36.33
2018-02-07T17:37:16.981Z,33.77
2018-02-07T17:39:44.407Z,34.47
2018-02-07T17:42:11.857Z,28.70
2018-02-07T17:44:40.063Z,33.90
2018-02-07T17:47:08.279Z,30.40
2018-02-07T17:49:35.719Z,31.73
2018-02-07T17:52:03.171Z,31.93
2018-02-07T17:54:30.613Z,34.33
2018-02-07T17:56:58.055Z,31.50
2018-02-07T17:59:25.495Z,32.27
2018-02-07T18:01:52.939Z,34.03
2018-02-07T18:04:21.147Z,36.80
2018-02-07T18:06:49.355Z,36.90
2018-02-07T18:09:16.795Z,35.67
2018-02-07T18:11:44.240Z,36.23
2018-02-07T18:14:11.685Z,37.80
2018-02-07T18:16:39.891Z,33.10
2018-02-07T18:19:07.331Z,47.73
2018-02-07T18:21:34.779Z,41.37
2018-02-07T18:24:02.219Z,32.47
2018-02-07T18:26:29.676Z,34.57
2018-02-07T18:28:57.115Z,30.90
2018-02-07T18:31:24.558Z,31.60
2018-02-07T18:33:52.759Z,30.97
2018-02-07T18:36:20.967Z,34.73
2018-02-07T18:38:48.399Z,32.43
2018-02-07T18:41:15.847Z,32.50
2018-02-07T18:43:43.285Z,29.77
2018-02-07T18:46:10.723Z,31.27
2018-02-07T18:48:38.160Z,27.80
2018-02-07T18:51:06.379Z,29.90
2018-02-07T18:53:33.819Z,30.33
2018-02-07T18:56:01.263Z,32.00
2018-02-07T18:58:28.707Z,31.00
2018-02-07T19:00:56.915Z,30.40
2018-02-07T19:03:24.351Z,30.70
2018-02-07T19:05:51.799Z,31.80
2018-02-07T19:08:19.240Z,32.00
2018-02-07T19:10:47.460Z,36.37
2018-02-07T19:13:14.883Z,36.77
2018-02-07T19:15:42.327Z,32.07
2018-02-07T19:18:09.759Z,34.33
2018-02-07T19:20:37.234Z,31.27
2018-02-07T19:23:05.436Z,35.43
2018-02-07T19:25:33.639Z,31.13
2018-02-07T19:28:01.847Z,32.53
2018-02-07T19:30:29.283Z,32.77
2018-02-07T19:32:56.727Z,31.73
2018-02-07T19:35:24.177Z,32.10
2018-02-07T19:37:52.379Z,33.33
2018-02-07T19:40:20.584Z,34.67
2018-02-07T19:42:48.800Z,38.70
2018-02-07T19:45:16.232Z,34.30
2018-02-07T19:47:43.670Z,31.43
2018-02-07T19:50:11.112Z,32.63
2018-02-07T19:52:38.559Z,33.57
2018-02-07T19:55:05.991Z,32.40
2018-02-07T19:57:34.196Z,34.20
2018-02-07T20:00:01.627Z,31.50
2018-02-07T20:02:29.067Z,36.37
2018-02-07T20:04:56.507Z,33.60
2018-02-07T20:07:23.951Z,30.00
2018-02-07T20:09:51.391Z,34.37
2018-02-07T20:12:19.598Z,35.60
2018-02-07T20:14:47.850Z,31.10
2018-02-07T20:17:16.019Z,37.13
2018-02-07T20:19:43.459Z,34.37
2018-02-07T20:22:10.898Z,34.43
2018-02-07T20:24:38.340Z,32.03
2018-02-07T20:27:06.551Z,32.10
2018-02-07T20:29:33.987Z,34.30
2018-02-07T20:32:01.435Z,29.87
2018-02-07T20:34:28.875Z,33.90
2018-02-07T20:36:56.320Z,32.23
2018-02-07T20:39:23.764Z,34.40
2018-02-07T20:41:52.031Z,30.77
2018-02-07T20:44:19.471Z,32.73
2018-02-07T20:46:46.911Z,31.17
2018-02-07T20:49:15.117Z,30.27
2018-02-07T20:51:43.318Z,32.90
2018-02-07T20:54:10.798Z,31.87
2018-02-07T20:56:38.995Z,30.10
2018-02-07T20:59:07.196Z,32.97
2018-02-07T21:01:34.708Z,32.30
2018-02-07T21:04:02.143Z,30.20
2018-02-07T21:06:30.346Z,30.70
2018-02-07T21:08:58.552Z,29.53
2018-02-07T21:11:26.759Z,30.93
2018-02-07T21:13:54.206Z,28.97
2018-02-07T21:16:21.643Z,30.27
2018-02-07T21:18:49.075Z,29.63
2018-02-07T21:21:16.557Z,31.13
2018-02-07T21:23:43.999Z,33.87
2018-02-07T21:26:11.447Z,32.63
2018-02-07T21:28:38.892Z,29.97
2018-02-07T21:31:06.323Z,32.37
2018-02-07T21:33:33.763Z,31.83
2018-02-07T21:36:01.963Z,29.30
2018-02-07T21:38:30.183Z,31.23
2018-02-07T21:40:57.627Z,30.60
2018-02-07T21:43:25.072Z,29.20
2018-02-07T21:45:52.506Z,31.13
2018-02-07T21:48:20.715Z,29.37
2018-02-07T21:50:48.915Z,32.37
2018-02-07T21:53:16.355Z,30.00
2018-02-07T21:55:43.791Z,30.17
2018-02-07T21:58:11.239Z,30.80
2018-02-07T22:00:38.666Z,31.93
2018-02-07T22:03:06.119Z,29.47
2018-02-07T22:05:34.316Z,30.57
2018-02-07T22:08:02.532Z,29.40
2018-02-07T22:10:29.959Z,32.40
2018-02-07T22:12:57.402Z,30.37
2018-02-07T22:15:24.838Z,30.63
2018-02-07T22:17:53.060Z,33.17
2018-02-07T22:20:20.499Z,35.77
2018-02-07T22:22:47.947Z,32.53
2018-02-07T22:25:15.408Z,33.30
2018-02-07T22:27:43.599Z,32.33
2018-02-07T22:30:11.799Z,30.90
2018-02-07T22:32:39.243Z,30.23
2018-02-07T22:35:06.680Z,30.70
2018-02-07T22:37:34.120Z,30.90
2018-02-07T22:40:02.329Z,31.40
2018-02-07T22:42:30.540Z,33.73
2018-02-07T22:44:57.981Z,32.80
2018-02-07T22:47:25.435Z,32.17
2018-02-07T22:49:52.879Z,33.63
2018-02-07T22:52:20.327Z,35.03
2018-02-07T22:54:47.759Z,31.70
2018-02-07T22:57:15.243Z,28.20
2018-02-07T22:59:42.735Z,28.30
2018-02-07T23:02:10.183Z,30.07
2018-02-07T23:04:38.383Z,30.50
2018-02-07T23:07:05.828Z,30.50
2018-02-07T23:09:33.276Z,31.40
2018-02-07T23:12:00.711Z,30.50
2018-02-07T23:14:28.915Z,32.50
2018-02-07T23:16:57.135Z,33.27
2018-02-07T23:19:24.574Z,30.57
2018-02-07T23:21:52.015Z,29.73
2018-02-07T23:24:19.463Z,30.53
2018-02-07T23:26:46.911Z,30.40
2018-02-07T23:29:14.367Z,30.80
2018-02-07T23:31:41.807Z,30.33
2018-02-07T23:34:09.259Z,29.77
2018-02-07T23:36:36.699Z,27.40
2018-02-07T23:39:04.147Z,30.03
2018-02-07T23:41:31.589Z,31.73
2018-02-07T23:43:59.036Z,31.53
2018-02-07T23:46:26.491Z,32.70
2018-02-07T23:48:53.939Z,32.67
2018-02-07T23:51:21.411Z,27.87
2018-02-07T23:53:48.851Z,29.17
2018-02-07T23:56:16.299Z,32.87
2018-02-07T23:58:44.511Z,30.77
